Time;durP1;ratioP1;P1;durP2;ratioP2;P2;SDS_P1;SDS_P2;PMS_P1;PMS_P2;Temp;Humidity;BMP_temperature;BMP_pressure;BME280_temperature;BME280_humidity;BME280_pressure;Samples;Min_cycle;Max_cycle;Signal;HPM_P1;HPM_P2
2022/02/19 00:01:43;;;;;;;6.95;3.50;;;;;;;9.77;69.77;98533.00;5094553;28;20090;-74
2022/02/19 00:04:13;;;;;;;7.90;3.08;;;;;;;9.77;69.27;98529.59;5094674;28;20041;-73
2022/02/19 00:06:42;;;;;;;9.77;4.03;;;;;;;9.59;69.65;98517.19;5094485;28;20044;-73
2022/02/19 00:09:11;;;;;;;5.73;3.20;;;;;;;9.73;70.22;98550.91;5093331;28;20090;-73
2022/02/19 00:11:40;;;;;;;7.20;3.93;;;;;;;9.74;69.68;98560.25;5094651;28;20273;-73
2022/02/19 00:14:09;;;;;;;6.20;3.53;;;;;;;9.71;69.81;98557.75;5094712;28;20063;-73
2022/02/19 00:16:38;;;;;;;5.32;2.92;;;;;;;9.65;70.17;98540.84;5094809;28;20040;-73
2022/02/19 00:19:07;;;;;;;8.77;4.07;;;;;;;9.82;70.10;98560.97;5094037;28;20072;-74
2022/02/19 00:21:38;;;;;;;7.45;3.97;;;;;;;9.82;69.99;98560.97;5094583;28;20036;-73
2022/02/19 00:24:07;;;;;;;8.18;4.20;;;;;;;9.83;70.12;98557.56;5094308;28;20039;-73
2022/02/19 00:26:37;;;;;;;6.05;3.80;;;;;;;9.85;70.40;98566.84;5094623;28;20032;-74
2022/02/19 00:29:07;;;;;;;7.27;3.40;;;;;;;9.79;70.00;98561.03;5095086;28;20442;-73
2022/02/19 00:31:40;;;;;;;6.38;3.50;;;;;;;9.83;70.42;98580.50;5093827;28;20276;-74
2022/02/19 00:34:09;;;;;;;7.88;4.30;;;;;;;9.82;70.01;98581.34;5093299;28;20111;-74
2022/02/19 00:36:40;;;;;;;7.17;4.27;;;;;;;9.80;70.33;98590.72;5094587;28;20389;-73
2022/02/19 00:39:09;;;;;;;8.68;3.20;;;;;;;9.78;70.25;98582.25;5095115;28;20485;-74
2022/02/19 00:41:38;;;;;;;6.57;4.10;;;;;;;9.77;70.66;98593.31;5094290;28;20120;-74
2022/02/19 00:44:08;;;;;;;6.73;4.20;;;;;;;9.77;70.71;98583.97;5094641;28;20051;-72
2022/02/19 00:46:37;;;;;;;;;;;;;;;9.79;70.93;98586.50;5094862;28;20040;-74
2022/02/19 00:49:06;;;;;;;7.00;3.75;;;;;;;9.78;71.44;98589.91;5093929;28;19924;-73
2022/02/19 00:51:37;;;;;;;7.95;3.67;;;;;;;9.78;70.98;98590.75;5094232;28;20059;-73
2022/02/19 00:54:07;;;;;;;11.45;4.22;;;;;;;9.76;71.24;98612.03;5093054;28;20390;-73
2022/02/19 00:56:36;;;;;;;6.28;3.80;;;;;;;9.71;70.91;98624.84;5092601;28;20079;-74
2022/02/19 00:59:06;;;;;;;7.75;3.80;;;;;;;9.67;71.59;98650.38;5094400;28;20126;-74
2022/02/19 01:01:37;;;;;;;6.70;4.18;;;;;;;9.57;71.35;98648.81;5092400;28;20040;-73
2022/02/19 01:04:19;;;;;;;6.82;3.92;;;;;;;9.56;72.16;98687.88;5092936;28;20036;-73
2022/02/19 01:06:49;;;;;;;7.85;3.75;;;;;;;9.51;71.82;98710.00;5092632;28;20060;-73
2022/02/19 01:09:20;;;;;;;4.95;3.17;;;;;;;9.48;71.92;98728.69;5075676;28;20044;-73
2022/02/19 01:11:49;;;;;;;8.50;4.28;;;;;;;9.47;72.65;98741.47;5092397;28;20052;-74
2022/02/19 01:14:17;;;;;;;6.77;4.13;;;;;;;9.41;72.69;98743.22;5092603;28;20481;-73
2022/02/19 01:16:47;;;;;;;6.97;4.03;;;;;;;9.37;72.58;98746.66;5093623;28;20089;-73
2022/02/19 01:19:16;;;;;;;8.68;4.35;;;;;;;9.31;72.72;98746.72;5092743;28;20284;-73
2022/02/19 01:21:46;;;;;;;7.38;4.22;;;;;;;9.34;73.27;98744.16;5093839;28;20032;-74
2022/02/19 01:24:15;;;;;;;6.97;4.30;;;;;;;9.34;73.36;98731.41;5092401;28;20044;-73
2022/02/19 01:26:45;;;;;;;8.43;4.43;;;;;;;9.25;72.94;98726.44;5092381;28;20044;-73
2022/02/19 01:29:14;;;;;;;6.70;3.97;;;;;;;9.16;73.71;98718.91;5092830;28;20330;-73
2022/02/19 01:31:43;;;;;;;8.90;4.55;;;;;;;9.06;74.43;98709.66;5093587;28;20040;-73
2022/02/19 01:34:14;;;;;;;8.73;4.57;;;;;;;9.02;74.61;98723.25;5096763;28;20050;-73
2022/02/19 01:36:43;;;;;;;9.68;5.15;;;;;;;8.99;74.63;98727.56;5097769;28;20509;-73
2022/02/19 01:39:15;;;;;;;9.15;4.85;;;;;;;8.90;74.78;98728.47;5096269;28;20048;-73
2022/02/19 01:41:47;;;;;;;10.35;5.20;;;;;;;8.83;75.49;98737.03;5096023;28;20044;-73
2022/02/19 01:44:18;;;;;;;7.35;4.32;;;;;;;8.81;75.92;98748.91;5096158;28;20048;-73
2022/02/19 01:46:49;;;;;;;8.30;4.53;;;;;;;8.85;75.76;98737.03;5096457;28;20043;-73
2022/02/19 01:49:18;;;;;;;7.32;3.70;;;;;;;8.84;76.07;98743.81;5095912;28;20040;-74
2022/02/19 01:51:47;;;;;;;9.48;5.30;;;;;;;8.82;75.61;98755.69;5096150;28;20093;-73
2022/02/19 01:54:16;;;;;;;;;;;;;;;8.96;76.21;98773.38;5079342;28;20070;-72
2022/02/19 01:57:10;;;;;;;10.70;5.03;;;;;;;9.10;75.05;98780.03;5092035;28;20007;-73
2022/02/19 02:00:07;;;;;;;6.90;3.88;;;;;;;9.13;74.79;98767.28;5095172;28;20097;-74
2022/02/19 02:02:44;;;;;;;6.40;3.70;;;;;;;9.22;74.53;98768.88;5079736;28;20051;-74
2022/02/19 02:05:39;;;;;;;7.40;3.88;;;;;;;9.25;73.88;98786.69;5095440;28;20068;-73
2022/02/19 02:08:09;;;;;;;6.40;3.92;;;;;;;9.26;73.64;98766.28;5097143;28;20040;-73
2022/02/19 02:10:39;;;;;;;7.18;3.28;;;;;;;9.28;73.13;98792.59;5097395;28;20461;-73
2022/02/19 02:13:19;;;;;;;4.53;2.53;;;;;;;9.34;72.65;98786.59;5095732;28;20109;-73
2022/02/19 02:15:52;;;;;;;5.60;2.08;;;;;;;9.41;70.62;98783.13;5097098;28;20050;-73
2022/02/19 02:18:30;;;;;;;5.53;2.15;;;;;;;9.50;69.21;98777.09;5095977;28;20091;-74
2022/02/19 02:21:00;;;;;;;3.88;1.95;;;;;;;9.50;68.67;98787.28;5079511;28;20044;-74
2022/02/19 02:23:31;;;;;;;3.20;1.47;;;;;;;9.59;66.69;98784.63;5097425;28;20032;-73
2022/02/19 02:26:03;;;;;;;3.20;1.23;;;;;;;9.69;64.24;98781.13;5095467;28;20314;-73
2022/02/19 02:28:32;;;;;;;2.08;1.10;;;;;;;9.72;62.88;98768.31;5078890;28;20052;-73
2022/02/19 02:31:05;;;;;;;2.78;1.30;;;;;;;9.57;62.07;98728.63;5095716;28;20056;-73
2022/02/19 02:33:34;;;;;;;2.60;1.38;;;;;;;9.84;61.90;98773.28;5096488;28;20051;-73
2022/02/19 02:36:12;;;;;;;2.22;1.25;;;;;;;9.77;61.54;98771.66;5095173;28;20044;-74
2022/02/19 02:38:47;;;;;;;2.53;1.10;;;;;;;9.63;62.01;98786.25;5095715;28;20156;-73
2022/02/19 02:41:17;;;;;;;1.65;1.00;;;;;;;9.70;60.55;98785.34;5096478;28;20097;-73
2022/02/19 02:43:46;;;;;;;1.65;0.85;;;;;;;9.73;59.30;98787.84;5078656;28;20047;-75
2022/02/19 02:46:19;;;;;;;1.33;0.80;;;;;;;9.76;57.79;98800.56;5078101;28;20040;-73
2022/02/19 02:48:49;;;;;;;1.42;0.60;;;;;;;9.84;56.19;98798.75;5094847;28;20050;-73
2022/02/19 02:51:19;;;;;;;0.63;0.45;;;;;;;9.89;54.99;98812.28;5094573;28;20036;-74
2022/02/19 02:53:52;;;;;;;0.65;0.43;;;;;;;9.88;55.21;98805.50;5096548;28;20044;-73
2022/02/19 02:56:22;;;;;;;1.45;0.70;;;;;;;9.91;53.62;98815.69;5096022;28;20079;-72
2022/02/19 02:58:52;;;;;;;0.63;0.50;;;;;;;9.97;53.33;98805.41;5094843;28;20044;-73
2022/02/19 03:01:21;;;;;;;0.63;0.40;;;;;;;10.14;51.36;98808.63;5095442;28;20485;-73
2022/02/19 03:03:49;;;;;;;0.70;0.52;;;;;;;10.23;50.44;98813.59;5094873;28;20371;-74
2022/02/19 03:06:18;;;;;;;0.57;0.40;;;;;;;10.25;49.89;98811.84;5095692;28;20040;-74
2022/02/19 03:08:52;;;;;;;0.60;0.50;;;;;;;10.27;48.81;98815.22;5094477;28;20051;-74
2022/02/19 03:11:21;;;;;;;0.47;0.43;;;;;;;10.24;49.01;98824.63;5096397;28;20052;-73
2022/02/19 03:13:50;;;;;;;0.83;0.67;;;;;;;10.31;47.96;98823.69;5095656;28;20074;-73
2022/02/19 03:16:21;;;;;;;0.77;0.50;;;;;;;10.31;47.40;98844.94;5077814;28;20055;-74
2022/02/19 03:18:50;;;;;;;1.20;0.52;;;;;;;10.30;47.38;98830.50;5094026;28;20043;-73
2022/02/19 03:21:19;;;;;;;1.75;0.65;;;;;;;10.38;47.00;98851.66;5094234;28;20043;-74
2022/02/19 03:23:52;;;;;;;0.73;0.50;;;;;;;10.37;47.16;98844.84;5094441;28;20402;-74
2022/02/19 03:26:22;;;;;;;0.77;0.43;;;;;;;10.30;47.60;98835.59;5094132;28;20098;-75
2022/02/19 03:28:54;;;;;;;1.50;0.65;;;;;;;10.30;46.89;98850.88;5094170;28;20139;-73
2022/02/19 03:31:25;;;;;;;1.55;0.47;;;;;;;10.38;47.00;98855.91;5093767;28;20114;-73
2022/02/19 03:33:59;;;;;;;0.40;0.40;;;;;;;10.39;46.93;98863.50;5095138;28;20052;-74
2022/02/19 03:36:31;;;;;;;0.47;0.47;;;;;;;10.25;47.25;98855.19;5077709;28;20048;-74
2022/02/19 03:39:03;;;;;;;1.33;0.55;;;;;;;10.27;47.97;98876.41;5095120;28;20044;-73
2022/02/19 03:41:34;;;;;;;0.68;0.47;;;;;;;10.28;47.58;98870.47;5093580;28;20067;-74
2022/02/19 03:44:04;;;;;;;1.70;0.68;;;;;;;10.26;47.62;98873.91;5094102;28;20117;-73
2022/02/19 03:46:38;;;;;;;0.93;0.50;;;;;;;10.27;47.37;98866.22;5093731;28;20043;-73
2022/02/19 03:49:30;;;;;;;0.75;0.57;;;;;;;10.42;46.99;98886.44;5083006;28;20048;-74
2022/02/19 03:51:59;;;;;;;1.15;0.60;;;;;;;10.39;47.48;98880.56;5094902;28;20037;-73
2022/02/19 03:54:30;;;;;;;1.65;0.43;;;;;;;10.33;47.40;98862.75;5092615;28;20033;-73
2022/02/19 03:56:59;;;;;;;0.47;0.40;;;;;;;10.26;47.77;98869.66;5093140;28;20140;-74
2022/02/19 03:59:28;;;;;;;0.77;0.60;;;;;;;10.18;48.07;98856.16;5093133;28;20043;-73
2022/02/19 04:02:00;;;;;;;1.65;0.50;;;;;;;10.13;48.04;98873.19;5093790;28;20426;-73
2022/02/19 04:04:33;;;;;;;0.60;0.40;;;;;;;10.14;47.44;98869.81;5076618;28;20047;-73
2022/02/19 04:07:02;;;;;;;0.40;0.40;;;;;;;10.18;46.96;98876.53;5093417;28;20097;-73
2022/02/19 04:09:55;;;;;;;0.73;0.60;;;;;;;10.25;46.56;98888.34;5094238;28;20051;-73
2022/02/19 04:12:26;;;;;;;0.52;0.52;;;;;;;10.13;47.69;98892.75;5093094;28;20062;-73
2022/02/19 04:14:57;;;;;;;0.43;0.40;;;;;;;10.00;48.84;98881.84;5093484;28;20044;-73
2022/02/19 04:17:27;;;;;;;0.60;0.60;;;;;;;9.99;48.78;98900.53;5093046;28;20036;-73
2022/02/19 04:19:57;;;;;;;1.00;0.45;;;;;;;10.09;47.15;98881.72;5077047;28;20113;-73
2022/02/19 04:22:26;;;;;;;1.80;0.50;;;;;;;10.19;45.55;98874.84;5093164;28;20047;-74
2022/02/19 04:24:58;;;;;;;1.05;0.85;;;;;;;10.25;44.93;98885.81;5094304;28;20281;-73
2022/02/19 04:27:31;;;;;;;0.70;0.47;;;;;;;10.29;44.76;98882.38;5093029;28;20044;-74
2022/02/19 04:30:01;;;;;;;0.90;0.60;;;;;;;10.35;44.53;98889.94;5094110;28;20040;-74
2022/02/19 04:32:32;;;;;;;0.52;0.40;;;;;;;10.17;45.59;98874.03;5092935;28;20070;-73
2022/02/19 04:35:03;;;;;;;2.95;0.80;;;;;;;10.15;46.31;98891.88;5093049;28;20046;-73
2022/02/19 04:37:37;;;;;;;1.35;0.50;;;;;;;10.03;47.76;98902.16;5092923;28;20055;-75
2022/02/19 04:40:11;;;;;;;0.50;0.50;;;;;;;9.89;48.79;98914.22;5092660;28;20135;-73
2022/02/19 04:42:42;;;;;;;0.73;0.55;;;;;;;9.89;47.37;98888.75;5092549;28;20048;-73
2022/02/19 04:45:18;;;;;;;0.77;0.60;;;;;;;10.05;46.17;98905.56;5092595;28;20048;-75
2022/02/19 04:47:54;;;;;;;0.90;0.60;;;;;;;10.13;45.78;98908.91;5076928;28;20093;-73
2022/02/19 04:50:25;;;;;;;0.55;0.40;;;;;;;10.11;46.40;98910.59;5092716;28;20051;-74
2022/02/19 04:52:57;;;;;;;0.52;0.50;;;;;;;10.00;47.23;98917.53;5092583;28;20078;-74
2022/02/19 04:55:32;;;;;;;0.85;0.50;;;;;;;9.99;46.43;98915.81;5092828;28;20078;-73
2022/02/19 04:58:09;;;;;;;0.70;0.50;;;;;;;10.08;45.79;98916.56;5092651;28;20052;-73
2022/02/19 05:00:38;;;;;;;1.05;0.65;;;;;;;10.07;45.88;98937.00;5092767;28;20032;-73
2022/02/19 05:03:27;;;;;;;2.58;0.88;;;;;;;10.09;45.08;98930.16;5072212;28;20069;-74
2022/02/19 05:06:15;;;;;;;1.58;0.70;;;;;;;10.01;46.00;98929.38;5093182;28;20040;-74
2022/02/19 05:08:55;;;;;;;3.03;0.50;;;;;;;10.01;46.05;98942.13;5097655;28;20508;-73
2022/02/19 05:11:29;;;;;;;0.70;0.57;;;;;;;9.99;46.11;98952.34;5096499;28;20130;-75
2022/02/19 05:13:59;;;;;;;1.95;0.50;;;;;;;10.03;45.67;98958.25;5096672;28;20047;-73
2022/02/19 05:16:29;;;;;;;1.98;0.60;;;;;;;9.98;45.41;98957.47;5096982;28;20058;-73
2022/02/19 05:19:03;;;;;;;0.50;0.40;;;;;;;9.89;45.85;98953.31;5096636;28;20400;-74
2022/02/19 05:21:37;;;;;;;1.10;0.43;;;;;;;9.90;45.91;98972.00;5079703;28;20078;-75
2022/02/19 05:24:09;;;;;;;1.98;0.65;;;;;;;9.65;45.84;98932.28;5096190;28;20494;-73
2022/02/19 05:26:45;;;;;;;0.63;0.57;;;;;;;9.88;45.85;98968.63;5096200;28;20068;-73
2022/02/19 05:29:17;;;;;;;0.98;0.40;;;;;;;9.85;46.17;98978.84;5096094;28;20084;-72
2022/02/19 05:31:48;;;;;;;1.20;0.82;;;;;;;9.86;46.52;98980.53;5096403;28;20501;-75
2022/02/19 05:34:29;;;;;;;2.33;0.60;;;;;;;9.84;45.75;98987.31;5081125;28;20048;-73
2022/02/19 05:37:02;;;;;;;3.17;0.70;;;;;;;9.80;46.54;98978.03;5079327;28;20075;-76
2022/02/19 05:39:36;;;;;;;0.60;0.50;;;;;;;9.80;45.70;98990.78;5097723;28;20051;-74
2022/02/19 05:42:12;;;;;;;1.88;0.50;;;;;;;9.81;46.38;99000.13;5095891;28;20512;-74
2022/02/19 05:44:43;;;;;;;2.25;0.60;;;;;;;9.83;45.91;99000.94;5096332;28;20048;-75
2022/02/19 05:47:17;;;;;;;1.15;0.50;;;;;;;9.82;46.30;99023.03;5095842;28;20055;-74
2022/02/19 05:50:01;;;;;;;0.63;0.52;;;;;;;9.76;46.43;99014.59;5096024;28;20035;-74
2022/02/19 05:52:41;;;;;;;1.73;0.70;;;;;;;9.72;46.90;99020.56;5095958;28;20051;-74
2022/02/19 05:55:24;;;;;;;1.10;0.60;;;;;;;9.70;46.71;99017.19;5095959;28;20398;-76
2022/02/19 05:57:55;;;;;;;3.42;0.90;;;;;;;9.68;46.89;99019.75;5095295;28;20052;-75
2022/02/19 06:00:25;;;;;;;2.55;0.68;;;;;;;9.63;46.89;99023.19;5095917;28;20058;-75
2022/02/19 06:02:54;;;;;;;2.05;0.68;;;;;;;9.66;47.43;99033.34;5096701;28;20065;-75
2022/02/19 06:05:23;;;;;;;0.70;0.60;;;;;;;9.62;48.10;99031.69;5095434;28;20497;-75
2022/02/19 06:07:54;;;;;;;3.90;0.70;;;;;;;9.46;48.34;99020.75;5095617;28;20036;-74
2022/02/19 06:10:23;;;;;;;1.80;0.55;;;;;;;9.52;48.92;99040.25;5096732;28;20454;-75
2022/02/19 06:12:52;;;;;;;3.67;0.90;;;;;;;9.47;48.91;99032.66;5095602;28;20043;-73
2022/02/19 06:15:27;;;;;;;2.42;0.90;;;;;;;9.38;50.10;99038.63;5095254;28;20048;-75
2022/02/19 06:18:08;;;;;;;2.47;1.05;;;;;;;9.26;51.10;99037.88;5095849;28;20044;-75
2022/02/19 06:20:37;;;;;;;;;;;;;;;9.16;51.72;99042.19;5095588;28;20052;-73
2022/02/19 06:23:17;;;;;;;1.87;0.60;;;;;;;9.11;52.51;99058.31;5112140;28;19920;-73
2022/02/19 06:25:46;;;;;;;1.00;0.60;;;;;;;8.95;52.55;99021.09;5095022;28;20281;-73
2022/02/19 06:28:15;;;;;;;0.95;0.60;;;;;;;9.01;52.96;99042.25;5094946;28;20127;-73
2022/02/19 06:30:47;;;;;;;1.02;0.70;;;;;;;9.05;53.26;99061.75;5094961;28;20043;-73
2022/02/19 06:33:16;;;;;;;4.40;0.68;;;;;;;9.04;53.48;99071.94;5095235;28;20051;-75
2022/02/19 06:35:46;;;;;;;1.35;0.70;;;;;;;9.01;53.28;99082.97;5094841;28;20105;-74
2022/02/19 06:38:39;;;;;;;4.85;1.38;;;;;;;8.96;54.13;99099.09;5096007;28;20043;-75
2022/02/19 06:41:12;;;;;;;2.03;0.75;;;;;;;8.95;53.31;99082.97;5094987;28;20051;-75
2022/02/19 06:44:07;;;;;;;1.73;0.75;;;;;;;8.88;54.36;99090.69;5093625;28;20123;-75
2022/02/19 06:46:41;;;;;;;1.50;0.47;;;;;;;8.85;55.03;99106.78;5077984;28;20086;-75
2022/02/19 06:49:10;;;;;;;1.10;0.70;;;;;;;8.85;55.51;99116.97;5094523;28;20482;-75
2022/02/19 06:51:44;;;;;;;2.55;0.85;;;;;;;8.83;54.75;99111.00;5094864;28;20040;-75
2022/02/19 06:54:13;;;;;;;1.42;0.75;;;;;;;8.82;55.87;99122.06;5094511;28;20043;-75
2022/02/19 06:56:43;;;;;;;2.10;0.70;;;;;;;8.82;55.91;99126.28;5094050;28;20056;-75
2022/02/19 06:59:12;;;;;;;2.47;0.80;;;;;;;8.77;56.13;99128.84;5094612;28;20047;-75
2022/02/19 07:01:43;;;;;;;2.60;0.60;;;;;;;8.76;56.40;99134.78;5094376;28;20040;-72
2022/02/19 07:04:15;;;;;;;2.10;0.50;;;;;;;8.80;55.69;99144.13;5077593;28;20497;-75
2022/02/19 07:06:55;;;;;;;0.77;0.70;;;;;;;8.77;55.93;99133.94;5095786;28;20044;-73
2022/02/19 07:09:27;;;;;;;1.27;0.80;;;;;;;8.78;56.31;99150.91;5094169;28;20075;-75
2022/02/19 07:11:58;;;;;;;3.90;0.70;;;;;;;8.77;56.49;99149.22;5094540;28;20086;-75
2022/02/19 07:14:30;;;;;;;2.40;0.77;;;;;;;8.73;57.31;99162.81;5094365;28;20075;-75
2022/02/19 07:17:05;;;;;;;3.15;1.35;;;;;;;8.71;57.09;99154.28;5094098;28;20486;-75
2022/02/19 07:19:36;;;;;;;2.50;0.90;;;;;;;8.63;57.33;99146.72;5093974;28;20048;-75
2022/02/19 07:22:12;;;;;;;4.00;0.90;;;;;;;8.67;56.90;99167.88;5094283;28;20398;-75
2022/02/19 07:24:43;;;;;;;0.68;0.50;;;;;;;8.73;56.73;99170.44;5093878;28;20048;-75
2022/02/19 07:27:12;;;;;;;;;;;;;;;8.75;55.79;99187.38;5095432;28;20048;-76
2022/02/19 07:29:41;;;;;;;0.70;0.60;;;;;;;8.76;55.30;99183.97;5094058;28;19920;-75
2022/02/19 07:32:13;;;;;;;2.00;0.90;;;;;;;8.62;56.03;99139.06;5093787;28;20058;-75
2022/02/19 07:34:42;;;;;;;1.92;0.63;;;;;;;8.80;55.28;99182.28;5095190;28;20052;-75
2022/02/19 07:37:12;;;;;;;0.57;0.45;;;;;;;8.86;55.18;99189.91;5093752;28;20048;-74
2022/02/19 07:39:42;;;;;;;1.65;0.65;;;;;;;8.87;55.26;99195.84;5093565;28;20444;-73
2022/02/19 07:42:11;;;;;;;1.43;0.70;;;;;;;8.86;55.00;99194.97;5093746;28;20432;-73
2022/02/19 07:44:51;;;;;;;1.23;0.80;;;;;;;8.85;56.06;99193.31;5094778;28;20287;-72
2022/02/19 07:47:34;;;;;;;1.38;0.65;;;;;;;8.84;55.99;99191.59;5094613;28;20048;-73
2022/02/19 07:58:19;;;;;;;2.45;0.57;;;;;;;8.90;56.27;99211.09;5093339;28;20046;-72
2022/02/19 08:00:52;;;;;;;3.45;0.93;;;;;;;8.92;55.95;99211.94;5093749;28;20075;-73
2022/02/19 08:03:25;;;;;;;3.47;0.82;;;;;;;8.90;57.06;99218.75;5076978;28;20109;-75
2022/02/19 08:06:01;;;;;;;1.57;0.80;;;;;;;8.91;57.16;99213.63;5093491;28;20113;-75
2022/02/19 08:08:31;;;;;;;2.05;0.70;;;;;;;8.94;57.44;99218.72;5044120;28;20304;-75
2022/02/19 08:11:04;;;;;;;0.93;0.57;;;;;;;9.00;57.46;99221.25;5093310;28;20127;-74
2022/02/19 08:13:33;;;;;;;1.52;0.80;;;;;;;9.03;57.89;99228.03;5094232;28;20546;-73
2022/02/19 08:16:02;;;;;;;5.45;0.88;;;;;;;9.08;57.87;99237.38;5094043;28;20093;-73
2022/02/19 08:18:33;;;;;;;2.25;0.77;;;;;;;9.13;57.70;99229.72;5094342;28;20156;-75
2022/02/19 08:21:02;;;;;;;0.82;0.60;;;;;;;9.12;57.36;99221.22;5093449;28;20047;-73
2022/02/19 08:23:31;;;;;;;1.40;0.70;;;;;;;9.13;58.41;99235.66;5094258;28;20063;-74
2022/02/19 08:26:01;;;;;;;2.75;0.90;;;;;;;9.17;57.57;99247.53;5093992;28;20435;-73
2022/02/19 08:28:30;;;;;;;;;;;;;;;9.19;57.71;99260.28;5093251;28;20056;-74
2022/02/19 08:30:59;;;;;;;4.53;0.70;;;;;;;9.23;57.93;99257.72;5093885;28;19931;-75
2022/02/19 08:33:28;;;;;;;2.45;0.70;;;;;;;9.29;56.63;99267.88;5093849;28;20055;-75
2022/02/19 08:35:59;;;;;;;3.03;0.80;;;;;;;9.29;57.01;99260.22;5094167;28;20599;-73
2022/02/19 08:38:28;;;;;;;3.42;0.63;;;;;;;9.29;56.89;99269.56;5093181;28;20277;-73
2022/02/19 08:40:57;;;;;;;1.57;0.70;;;;;;;9.35;56.40;99262.78;5093762;28;20508;-75
2022/02/19 08:43:26;;;;;;;1.90;0.90;;;;;;;9.41;56.68;99252.56;5094307;28;20326;-75
2022/02/19 08:45:55;;;;;;;2.33;0.90;;;;;;;9.45;56.17;99249.13;5093984;28;20044;-75
2022/02/19 08:48:24;;;;;;;1.90;0.85;;;;;;;9.60;56.55;99270.34;5075743;28;20494;-75
2022/02/19 08:50:54;;;;;;;1.80;1.03;;;;;;;9.66;56.38;99273.69;5093561;28;20040;-75
2022/02/19 08:53:24;;;;;;;1.88;0.73;;;;;;;9.70;55.73;99264.34;5093654;28;20043;-76
2022/02/19 08:55:53;;;;;;;2.30;1.05;;;;;;;9.76;56.08;99264.31;5093588;28;20054;-76
2022/02/19 08:58:22;;;;;;;2.80;0.67;;;;;;;9.92;56.05;99271.03;5093737;28;20048;-76
2022/02/19 09:00:51;;;;;;;1.80;0.70;;;;;;;10.02;55.75;99267.59;5093504;28;20040;-76
2022/02/19 09:03:20;;;;;;;2.08;0.82;;;;;;;10.01;55.34;99276.94;5093611;28;20093;-75
2022/02/19 09:05:50;;;;;;;2.05;1.13;;;;;;;10.02;54.34;99290.53;5093948;28;20044;-75
2022/02/19 09:08:19;;;;;;;1.47;0.70;;;;;;;10.00;54.48;99289.69;5093746;28;20052;-75
2022/02/19 09:10:50;;;;;;;1.40;0.80;;;;;;;10.01;54.48;99286.28;5092296;28;20135;-75
2022/02/19 09:13:19;;;;;;;3.58;1.27;;;;;;;10.03;53.86;99292.22;5093739;28;20054;-73
2022/02/19 09:15:49;;;;;;;1.77;0.60;;;;;;;9.87;53.63;99242.16;5093717;28;20040;-73
2022/02/19 09:18:18;;;;;;;0.82;0.57;;;;;;;10.23;53.02;99287.91;5093685;28;20044;-73
2022/02/19 09:20:47;;;;;;;4.15;0.90;;;;;;;10.43;53.03;99295.44;5093375;28;20490;-73
2022/02/19 09:23:16;;;;;;;2.40;0.60;;;;;;;10.78;52.31;99281.56;5092199;28;20044;-73
2022/02/19 09:25:45;;;;;;;1.90;0.90;;;;;;;11.06;51.63;99278.78;5092079;28;20048;-74
2022/02/19 09:28:20;;;;;;;1.52;0.93;;;;;;;10.88;51.50;99245.75;5093253;28;20520;-74
2022/02/19 09:30:49;;;;;;;2.97;0.90;;;;;;;11.06;51.59;99289.81;5093488;28;20040;-74
2022/02/19 09:33:18;;;;;;;1.07;0.77;;;;;;;11.11;51.41;99297.47;5093609;28;20044;-73
2022/02/19 09:35:47;;;;;;;2.40;1.00;;;;;;;11.14;50.93;99312.75;5093234;28;20131;-73
2022/02/19 09:38:17;;;;;;;2.35;0.88;;;;;;;11.43;50.61;99320.97;5093162;28;20050;-75
2022/02/19 09:40:47;;;;;;;;;;;;;;;11.81;50.20;99318.03;5093921;28;20037;-75
2022/02/19 09:43:18;;;;;;;;;;;;;;;12.04;49.53;99316.88;5093843;28;20316;-75
2022/02/19 09:45:47;;;;;;;2.35;0.98;;;;;;;12.21;48.56;99309.03;5093185;28;19920;-76
2022/02/19 09:48:18;;;;;;;4.25;1.00;;;;;;;12.36;48.07;99318.19;5093162;28;20068;-76
2022/02/19 09:50:50;;;;;;;3.75;0.77;;;;;;;12.36;47.75;99324.16;5092997;28;20075;-76
2022/02/19 09:53:19;;;;;;;1.75;0.88;;;;;;;12.32;47.75;99342.13;5095815;28;20070;-75
2022/02/19 09:55:48;;;;;;;2.22;0.85;;;;;;;12.23;47.01;99334.59;5095837;28;20557;-75
2022/02/19 09:58:19;;;;;;;1.87;0.80;;;;;;;12.39;46.34;99328.38;5096898;28;20051;-75
2022/02/19 10:00:48;;;;;;;1.88;0.80;;;;;;;12.46;46.83;99333.41;5097184;28;20044;-75
2022/02/19 10:03:25;;;;;;;2.17;1.17;;;;;;;12.33;47.64;99338.72;5096843;28;20123;-74
2022/02/19 10:05:55;;;;;;;1.52;0.70;;;;;;;12.38;47.57;99344.63;5097186;28;20051;-75
2022/02/19 10:08:24;;;;;;;2.47;1.00;;;;;;;12.32;47.48;99337.00;5096987;28;20161;-74
2022/02/19 10:10:55;;;;;;;2.30;0.90;;;;;;;12.36;46.90;99347.19;5096446;28;20040;-75
2022/02/19 10:13:30;;;;;;;2.47;0.90;;;;;;;12.47;46.76;99347.06;5096551;28;20363;-75
2022/02/19 10:16:01;;;;;;;1.00;0.80;;;;;;;12.53;46.49;99346.94;5096810;28;20048;-73
2022/02/19 10:18:30;;;;;;;;;;;;;;;12.57;45.36;99343.50;5096930;28;20055;-74
2022/02/19 10:21:13;;;;;;;2.65;1.02;;;;;;;12.80;43.91;99341.44;5096431;28;19920;-75
2022/02/19 10:23:44;;;;;;;2.28;0.75;;;;;;;13.00;43.63;99354.81;5096404;28;20101;-74
2022/02/19 10:26:14;;;;;;;2.67;0.90;;;;;;;13.28;43.39;99350.94;5096775;28;20428;-74
2022/02/19 10:28:59;;;;;;;1.98;1.00;;;;;;;13.41;42.22;99337.03;5096224;28;20048;-75
2022/02/19 10:31:29;;;;;;;2.25;1.10;;;;;;;13.38;41.92;99362.72;5096129;28;20040;-75
2022/02/19 10:34:10;;;;;;;1.58;0.82;;;;;;;13.35;41.56;99357.66;5096168;28;20134;-74
2022/02/19 10:36:43;;;;;;;1.75;0.80;;;;;;;13.35;40.41;99349.97;5096203;28;20051;-75
2022/02/19 10:39:12;;;;;;;2.95;0.95;;;;;;;13.55;39.30;99379.53;5096162;28;20043;-74
2022/02/19 10:41:42;;;;;;;2.53;0.80;;;;;;;13.49;38.25;99364.25;5095142;28;20501;-74
2022/02/19 10:44:25;;;;;;;4.57;1.00;;;;;;;13.28;37.91;99381.69;5096099;28;20142;-74
2022/02/19 10:46:56;;;;;;;1.58;0.80;;;;;;;13.23;37.45;99360.41;5094956;28;20054;-74
2022/02/19 10:49:27;;;;;;;1.70;0.88;;;;;;;13.55;37.83;99364.16;5096271;28;20083;-76
2022/02/19 10:51:56;;;;;;;3.13;0.80;;;;;;;13.75;37.09;99360.34;5096713;28;20131;-74
2022/02/19 10:54:25;;;;;;;1.42;0.70;;;;;;;13.87;36.23;99360.09;5096058;28;20036;-76
2022/02/19 10:56:54;;;;;;;1.63;0.65;;;;;;;14.01;36.18;99367.56;5095580;28;20051;-74
2022/02/19 10:59:32;;;;;;;1.45;0.80;;;;;;;14.02;35.63;99372.66;5094867;28;20072;-76
2022/02/19 11:02:13;;;;;;;2.78;0.70;;;;;;;13.98;34.71;99370.19;5096024;28;20126;-74
2022/02/19 11:04:44;;;;;;;2.45;0.73;;;;;;;14.16;34.58;99362.09;5095732;28;20139;-73
2022/02/19 11:07:13;;;;;;;2.03;0.70;;;;;;;14.26;34.28;99366.16;5095860;28;20081;-73
2022/02/19 11:09:42;;;;;;;;;;;;;;;14.44;33.84;99360.69;5096404;28;20066;-75
2022/02/19 11:12:11;;;;;;;2.63;0.85;;;;;;;14.62;32.62;99375.69;5095520;28;19935;-75
2022/02/19 11:14:44;;;;;;;4.05;0.80;;;;;;;14.47;32.23;99375.16;5095272;28;20086;-74
2022/02/19 11:17:15;;;;;;;3.22;0.90;;;;;;;14.64;31.71;99357.66;5095406;28;20044;-73
2022/02/19 11:19:44;;;;;;;2.47;0.80;;;;;;;14.56;31.66;99363.00;5095813;28;20051;-75
2022/02/19 11:22:14;;;;;;;3.07;0.80;;;;;;;14.44;31.49;99381.25;5095214;28;20528;-73
2022/02/19 11:24:46;;;;;;;1.00;0.70;;;;;;;14.06;31.32;99342.63;5095127;28;20130;-74
2022/02/19 11:27:20;;;;;;;3.28;0.93;;;;;;;14.16;30.77;99362.09;5095151;28;20052;-73
2022/02/19 11:29:53;;;;;;;2.60;0.98;;;;;;;14.26;30.05;99366.16;5095641;28;20483;-74
2022/02/19 11:32:23;;;;;;;0.63;0.50;;;;;;;14.43;29.61;99379.53;5094883;28;20132;-73
2022/02/19 11:34:52;;;;;;;3.55;0.77;;;;;;;14.40;29.28;99377.03;5095138;28;20052;-74
2022/02/19 11:37:23;;;;;;;1.85;0.63;;;;;;;14.50;28.88;99386.22;5095355;28;20446;-73
2022/02/19 11:40:02;;;;;;;1.70;0.60;;;;;;;14.80;28.42;99394.16;5095685;28;20501;-73
2022/02/19 11:42:50;;;;;;;1.30;0.80;;;;;;;14.90;28.02;99395.66;5095756;28;20036;-75
2022/02/19 11:45:23;;;;;;;0.70;0.70;;;;;;;14.68;27.29;99380.69;5095943;28;20076;-75
2022/02/19 11:47:55;;;;;;;3.83;1.05;;;;;;;14.36;27.60;99397.66;5096504;28;20052;-74
2022/02/19 11:50:26;;;;;;;0.88;0.73;;;;;;;14.08;27.67;99387.09;5095214;28;20046;-73
2022/02/19 11:53:16;;;;;;;2.25;1.00;;;;;;;14.00;27.44;99386.38;5094765;28;20072;-74
2022/02/19 11:55:46;;;;;;;2.28;0.85;;;;;;;14.06;27.96;99365.72;5095092;28;20048;-74
2022/02/19 11:58:16;;;;;;;2.30;0.60;;;;;;;14.05;27.38;99382.00;5094497;28;20048;-74
2022/02/19 12:00:49;;;;;;;1.00;0.80;;;;;;;14.05;27.02;99385.44;5094614;28;20111;-74
2022/02/19 12:03:23;;;;;;;1.95;0.82;;;;;;;14.22;27.37;99397.94;5094102;28;20055;-75
2022/02/19 12:06:06;;;;;;;0.82;0.70;;;;;;;14.19;26.81;99389.44;5094637;28;20048;-75
2022/02/19 12:09:12;;;;;;;1.92;0.75;;;;;;;14.19;26.53;99405.69;5095020;28;20051;-75
2022/02/19 12:11:59;;;;;;;1.20;0.60;;;;;;;14.46;26.60;99405.16;5094247;28;20047;-74